KCXO/CXO METAR and TAF weather

Enter ICAO airport designator
Station Type Date Time Source
KCXO METAR 2019/12/14 18:53 UTC NOAA

KCXO 141853Z 12006KT 10SM CLR 21/07 A2984 RMK AO2 SLP105 T02110067


Station Type Date Time Source
KCXO Decoded METAR 2019/12/14 18:53 UTC NOAA

LONE STAR EXECUTIVE AIRPORT, TX, United States (KCXO) 30-21N 95-25W 75M
Dec 14, 2019 - 01:53 PM EST / 2019.12.14 1853 UTC
Wind: from the ESE (120 degrees) at 7 MPH (6 KT):0
Visibility: 10 mile(s):0
Sky conditions: clear
Temperature: 70.0 F (21.1 C)
Dew Point: 44.1 F (6.7 C)
Relative Humidity: 39%
Pressure (altimeter): 29.84 in. Hg (1010 hPa)
ob: KCXO 141853Z 12006KT 10SM CLR 21/07 A2984 RMK AO2 SLP105 T02110067
cycle: 19

Station Type Date Time Source
KCXO TAF 2019/12/14 18:27 UTC NOAA

TAF KCXO 141723Z 1418/1518 06003KT P6SM SKC
FM142100 15005KT P6SM SKC
FM150800 17003KT 5SM BR BKN025
FM151000 VRB03KT 3SM BR BKN015
FM151500 18008KT 6SM BR BKN025

Example: see airport list